Time;durP1;ratioP1;P1;durP2;ratioP2;P2;SDS_P1;SDS_P2;PMS_P1;PMS_P2;Temp;Humidity;BMP_temperature;BMP_pressure;BME280_temperature;BME280_humidity;BME280_pressure;Samples;Min_cycle;Max_cycle;Signal;HPM_P1;HPM_P2
2022/07/07 00:00:53;;;;;;;5.77;2.57;;;23.40;50.40;24.80;101299.00;;;;5066464;28;20650;-43
2022/07/07 00:03:19;;;;;;;2.63;2.40;;;23.40;50.40;24.70;101293.00;;;;5066233;28;20181;-43
2022/07/07 00:05:45;;;;;;;3.47;2.80;;;23.40;50.50;24.70;101287.00;;;;5066280;28;20193;-43
2022/07/07 00:08:11;;;;;;;3.43;2.63;;;23.40;50.60;24.70;101283.00;;;;5066142;28;20206;-44
2022/07/07 00:10:36;;;;;;;4.83;3.10;;;23.40;50.60;24.70;101280.00;;;;5066584;28;20178;-44
2022/07/07 00:13:02;;;;;;;5.07;2.80;;;23.30;50.70;24.60;101275.00;;;;5066444;28;20169;-43
2022/07/07 00:15:28;;;;;;;5.77;2.70;;;23.20;50.60;24.60;101274.00;;;;5066132;28;20170;-44
2022/07/07 00:17:54;;;;;;;4.67;2.90;;;23.20;50.60;24.60;101267.00;;;;5066133;28;20223;-43
2022/07/07 00:20:19;;;;;;;3.57;2.90;;;23.20;50.80;24.50;101269.00;;;;5066580;28;20165;-44
2022/07/07 00:22:45;;;;;;;5.87;3.00;;;23.10;51.00;24.50;101267.00;;;;5065747;28;20170;-44
2022/07/07 00:25:11;;;;;;;6.40;2.90;;;23.10;51.20;24.40;101269.00;;;;5077072;28;20888;-44
2022/07/07 00:27:37;;;;;;;5.37;2.97;;;23.00;51.30;24.40;101277.00;;;;5067405;28;20185;-45
2022/07/07 00:30:04;;;;;;;5.40;3.27;;;23.00;51.40;24.30;101274.00;;;;5066113;28;20193;-44
2022/07/07 00:32:30;;;;;;;3.93;2.83;;;23.00;51.60;24.30;101269.00;;;;5064872;28;20178;-43
2022/07/07 00:34:56;;;;;;;4.00;3.00;;;23.00;51.60;24.30;101272.00;;;;5066035;28;20712;-43
2022/07/07 00:37:21;;;;;;;5.63;3.00;;;23.00;51.70;24.30;101264.00;;;;5065446;28;20665;-43
2022/07/07 00:39:47;;;;;;;4.07;3.27;;;23.00;51.90;24.20;101260.00;;;;5066983;28;20181;-44
2022/07/07 00:42:14;;;;;;;4.40;3.00;;;22.90;52.00;24.20;101253.00;;;;5066970;28;20173;-42
2022/07/07 00:44:41;;;;;;;4.73;2.90;;;22.90;52.10;24.20;101252.00;;;;5066267;28;20216;-43
2022/07/07 00:47:07;;;;;;;6.30;3.10;;;22.80;52.40;24.20;101243.00;;;;5065979;28;20208;-44
2022/07/07 00:49:33;;;;;;;3.70;2.77;;;22.80;52.50;24.10;101235.00;;;;5064376;28;20193;-43
2022/07/07 00:51:58;;;;;;;3.83;2.97;;;22.70;52.40;24.10;101227.00;;;;5064508;28;20170;-42
2022/07/07 00:54:25;;;;;;;6.20;3.07;;;22.70;52.60;24.00;101237.00;;;;5065962;28;20659;-43
2022/07/07 00:56:51;;;;;;;4.33;2.80;;;22.70;52.70;24.00;101235.00;;;;5065695;28;20685;-43
2022/07/07 00:59:16;;;;;;;4.33;2.90;;;22.70;52.70;24.00;101230.00;;;;5065588;28;20181;-43
2022/07/07 01:01:42;;;;;;;5.07;2.60;;;22.70;53.00;24.00;101224.00;;;;5065589;28;20173;-43
2022/07/07 01:04:11;;;;;;;4.33;2.60;;;22.70;53.00;24.00;101226.00;;;;5065513;28;20176;-44
2022/07/07 01:06:37;;;;;;;3.57;2.50;;;22.60;53.00;23.90;101221.00;;;;5065655;28;20231;-43
2022/07/07 01:09:03;;;;;;;3.73;2.50;;;22.60;53.00;23.90;101220.00;;;;5065450;28;20610;-43
2022/07/07 01:11:45;;;;;;;3.13;2.63;;;22.60;53.10;23.90;101152.00;;;;5065681;28;20223;-43
2022/07/07 01:14:10;;;;;;;4.50;2.57;;;22.60;53.30;23.90;101219.00;;;;5065512;28;20176;-43
2022/07/07 01:16:36;;;;;;;4.60;2.50;;;22.70;53.30;23.90;101209.00;;;;5067950;28;20558;-43
2022/07/07 01:19:02;;;;;;;2.93;2.40;;;22.60;53.10;23.90;101212.00;;;;5069360;28;20256;-44
2022/07/07 01:21:28;;;;;;;2.77;2.30;;;22.70;53.20;23.90;101212.00;;;;5069431;28;20533;-44
2022/07/07 01:23:53;;;;;;;3.10;2.50;;;22.70;53.30;23.90;101211.00;;;;5067891;28;20185;-43
2022/07/07 01:26:19;;;;;;;4.60;2.50;;;22.70;53.30;23.90;101207.00;;;;5051402;28;20244;-44
2022/07/07 01:28:45;;;;;;;3.93;2.50;;;22.70;53.80;23.80;101201.00;;;;5070653;28;20229;-43
2022/07/07 01:31:11;;;;;;;3.83;2.23;;;22.60;54.00;23.80;101204.00;;;;5073195;28;20165;-44
2022/07/07 01:33:36;;;;;;;2.80;2.30;;;22.60;54.10;23.80;101210.00;;;;5072150;28;20173;-43
2022/07/07 01:36:02;;;;;;;3.43;2.20;;;22.60;54.90;23.80;101213.00;;;;5069090;28;20280;-43
2022/07/07 01:38:28;;;;;;;3.23;2.33;;;22.60;54.50;23.80;101212.00;;;;5068994;28;20260;-45
2022/07/07 01:40:54;;;;;;;4.80;2.57;;;22.50;54.60;23.70;101215.00;;;;5069157;28;20705;-44
2022/07/07 01:43:20;;;;;;;3.10;2.13;;;22.50;55.00;23.70;101202.00;;;;5068754;28;20170;-44
2022/07/07 01:45:46;;;;;;;2.40;2.20;;;22.50;55.10;23.70;101191.00;;;;5069041;28;20201;-44
2022/07/07 01:48:11;;;;;;;3.30;2.60;;;22.50;55.30;23.70;101188.00;;;;5068565;28;20186;-44
2022/07/07 01:50:37;;;;;;;3.90;2.37;;;22.40;55.60;23.70;101192.00;;;;5068859;28;20178;-44
2022/07/07 01:53:03;;;;;;;3.77;2.60;;;22.40;55.40;23.70;101194.00;;;;5068795;28;20170;-43
2022/07/07 01:55:29;;;;;;;2.40;2.20;;;22.50;55.50;23.70;101188.00;;;;5068881;28;20798;-45
2022/07/07 01:57:54;;;;;;;4.13;2.20;;;22.50;55.50;23.70;101165.00;;;;5068705;28;20236;-44
2022/07/07 02:00:20;;;;;;;2.80;2.37;;;22.50;55.80;23.70;101166.00;;;;5068798;28;20178;-43
2022/07/07 02:02:46;;;;;;;3.33;2.30;;;22.40;56.00;23.70;101171.00;;;;5068479;28;20176;-43
2022/07/07 02:05:12;;;;;;;3.60;2.13;;;22.40;55.90;23.60;101166.00;;;;5068690;28;20178;-42
2022/07/07 02:07:37;;;;;;;2.40;2.20;;;22.40;56.10;23.60;101168.00;;;;5068492;28;20190;-43
2022/07/07 02:10:05;;;;;;;3.13;2.67;;;22.40;56.50;23.60;101151.00;;;;5068504;28;20231;-44
2022/07/07 02:12:30;;;;;;;2.50;2.30;;;22.40;57.10;23.60;101166.00;;;;5068765;28;20169;-43
2022/07/07 02:14:57;;;;;;;3.63;2.53;;;22.30;56.90;23.60;101154.00;;;;5068347;28;20169;-43
2022/07/07 02:17:23;;;;;;;2.97;2.40;;;22.40;57.40;23.60;101155.00;;;;5068255;28;20201;-43
2022/07/07 02:19:49;;;;;;;4.83;2.50;;;22.40;57.30;23.60;101154.00;;;;5068681;28;20681;-43
2022/07/07 02:22:14;;;;;;;2.87;2.53;;;22.40;57.30;23.60;101146.00;;;;5068519;28;20170;-43
2022/07/07 02:24:40;;;;;;;4.43;2.53;;;22.40;57.10;23.60;101147.00;;;;5068349;28;20185;-43
2022/07/07 02:27:06;;;;;;;3.10;2.70;;;22.50;57.30;23.60;101159.00;;;;5066854;28;20189;-43
2022/07/07 02:29:31;;;;;;;3.97;2.90;;;22.50;57.30;23.60;101156.00;;;;5067744;28;20197;-43
2022/07/07 02:31:57;;;;;;;4.07;3.30;;;22.40;57.90;23.60;101152.00;;;;5068138;28;20235;-43
2022/07/07 02:34:23;;;;;;;4.30;3.20;;;22.40;57.80;23.60;101144.00;;;;5068420;28;20170;-43
2022/07/07 02:36:49;;;;;;;4.00;3.37;;;22.40;58.20;23.60;101151.00;;;;5074558;28;20193;-43
2022/07/07 02:39:14;;;;;;;4.13;3.30;;;22.30;58.40;23.50;101136.00;;;;5075222;28;20169;-44
2022/07/07 02:41:40;;;;;;;3.70;3.40;;;22.20;58.50;23.50;101132.00;;;;5067983;28;20201;-43
2022/07/07 02:44:06;;;;;;;3.70;3.30;;;22.20;59.00;23.50;101128.00;;;;5067794;28;20177;-42
2022/07/07 02:46:31;;;;;;;3.47;3.10;;;22.20;59.20;23.50;101126.00;;;;5067677;28;20197;-43
2022/07/07 02:48:58;;;;;;;4.30;2.80;;;22.20;59.20;23.50;101130.00;;;;5067496;28;20206;-44
2022/07/07 02:51:23;;;;;;;5.83;3.30;;;22.20;58.90;23.50;101124.00;;;;5067771;28;20178;-43
2022/07/07 02:53:49;;;;;;;4.33;3.17;;;22.30;59.00;23.50;101134.00;;;;5067638;28;20251;-43
2022/07/07 02:56:15;;;;;;;4.73;3.00;;;22.30;58.80;23.50;101137.00;;;;5067582;28;20700;-43
2022/07/07 02:58:41;;;;;;;3.73;3.33;;;22.30;58.70;23.50;101130.00;;;;5067446;28;20654;-44
2022/07/07 03:01:06;;;;;;;3.30;3.00;;;22.40;58.70;23.50;101128.00;;;;5067414;28;20174;-44
2022/07/07 03:03:32;;;;;;;4.00;3.00;;;22.40;58.50;23.50;101138.00;;;;5068471;28;20188;-45
2022/07/07 03:05:58;;;;;;;4.30;3.00;;;22.40;58.70;23.50;101125.00;;;;5075802;28;20201;-43
2022/07/07 03:08:24;;;;;;;3.77;3.30;;;22.40;58.70;23.50;101125.00;;;;5066878;28;20201;-44
2022/07/07 03:10:49;;;;;;;3.67;3.20;;;22.40;58.90;23.50;101130.00;;;;5067018;28;20174;-43
2022/07/07 03:13:15;;;;;;;4.30;3.50;;;22.30;59.10;23.50;101144.00;;;;5066857;28;20174;-44
2022/07/07 03:15:41;;;;;;;4.60;3.30;;;22.30;59.60;23.50;101128.00;;;;5066647;28;20177;-45
2022/07/07 03:18:07;;;;;;;3.50;3.20;;;22.20;59.80;23.50;101126.00;;;;5066777;28;20170;-43
2022/07/07 03:20:32;;;;;;;5.10;3.77;;;22.20;59.90;23.40;101137.00;;;;5066969;28;20196;-43
2022/07/07 03:22:58;;;;;;;4.17;3.30;;;22.20;59.90;23.40;101136.00;;;;5066810;28;20186;-44
2022/07/07 03:25:24;;;;;;;8.80;3.30;;;22.20;60.60;23.40;101131.00;;;;5066769;28;20176;-43
2022/07/07 03:27:50;;;;;;;3.87;3.20;;;22.10;60.70;23.30;101130.00;;;;5068953;28;20166;-44
2022/07/07 03:30:16;;;;;;;3.80;3.50;;;22.10;61.00;23.30;101114.00;;;;5071282;28;20201;-43
2022/07/07 03:32:41;;;;;;;3.37;2.90;;;22.00;61.20;23.30;101116.00;;;;5070515;28;20178;-43
2022/07/07 03:35:08;;;;;;;3.67;3.30;;;22.00;61.20;23.20;101129.00;;;;5066677;28;20741;-43
2022/07/07 03:37:34;;;;;;;3.80;3.27;;;21.90;61.50;23.20;101114.00;;;;5066569;28;20781;-44
2022/07/07 03:40:00;;;;;;;3.63;3.30;;;21.90;61.20;23.20;101113.00;;;;5066201;28;20231;-44
2022/07/07 03:42:25;;;;;;;3.47;3.07;;;21.90;61.50;23.10;101108.00;;;;5065945;28;20197;-44
2022/07/07 03:44:52;;;;;;;3.93;3.30;;;21.90;61.40;23.10;101108.00;;;;5066295;28;20707;-43
2022/07/07 03:47:17;;;;;;;3.50;3.20;;;21.90;61.50;23.10;101113.00;;;;5066648;28;20198;-44
2022/07/07 03:49:43;;;;;;;3.70;3.30;;;21.90;61.60;23.10;101119.00;;;;5067543;28;20197;-43
2022/07/07 03:52:09;;;;;;;5.30;3.33;;;21.80;61.60;23.10;101115.00;;;;5066423;28;20188;-45
2022/07/07 03:54:35;;;;;;;4.17;3.20;;;21.80;61.60;23.00;101120.00;;;;5066519;28;20615;-44
2022/07/07 03:57:00;;;;;;;3.70;3.13;;;21.90;61.60;23.00;101113.00;;;;5065810;28;20185;-44
2022/07/07 03:59:26;;;;;;;4.97;3.00;;;21.80;61.60;23.00;101110.00;;;;5065981;28;20208;-44
2022/07/07 04:01:52;;;;;;;2.90;2.40;;;21.90;61.10;23.00;101109.00;;;;5065386;28;20719;-42
2022/07/07 04:04:18;;;;;;;2.90;2.40;;;21.90;60.50;23.10;101117.00;;;;5066131;28;20177;-43
2022/07/07 04:06:44;;;;;;;3.07;2.20;;;22.00;59.70;23.10;101107.00;;;;5066439;28;20247;-45
2022/07/07 04:09:10;;;;;;;5.07;2.37;;;22.10;59.40;23.10;101088.00;;;;5065695;28;20193;-43
2022/07/07 04:11:36;;;;;;;2.73;2.30;;;22.10;59.10;23.10;101095.00;;;;5065657;28;20177;-44
2022/07/07 04:14:01;;;;;;;2.53;2.33;;;22.10;58.80;23.20;101087.00;;;;5064377;28;20183;-44
2022/07/07 04:16:29;;;;;;;3.70;2.37;;;22.20;58.50;23.20;101088.00;;;;5065899;28;20281;-43
2022/07/07 04:18:57;;;;;;;2.93;2.50;;;22.20;58.40;23.20;101089.00;;;;5065626;28;20178;-44
2022/07/07 04:21:23;;;;;;;2.50;2.30;;;22.20;58.10;23.20;101082.00;;;;5065026;28;20545;-44
2022/07/07 04:23:49;;;;;;;2.40;2.20;;;22.20;57.80;23.20;101074.00;;;;5065175;28;20340;-43
2022/07/07 04:26:14;;;;;;;2.20;2.10;;;22.20;57.80;23.20;101068.00;;;;5065780;28;20193;-43
2022/07/07 04:28:41;;;;;;;2.37;2.17;;;22.20;57.60;23.20;101061.00;;;;5065169;28;20201;-44
2022/07/07 04:31:07;;;;;;;2.90;2.30;;;22.20;57.50;23.20;101066.00;;;;5064969;28;20200;-44
2022/07/07 04:33:33;;;;;;;2.37;2.17;;;22.20;57.60;23.30;101065.00;;;;5065280;28;20166;-43
2022/07/07 04:35:59;;;;;;;2.43;2.23;;;22.20;58.10;23.30;101067.00;;;;5065393;28;20189;-43
2022/07/07 04:38:24;;;;;;;2.60;2.40;;;22.20;57.40;23.30;101062.00;;;;5065502;28;20178;-43
2022/07/07 04:40:50;;;;;;;4.70;2.60;;;22.20;57.40;23.30;101059.00;;;;5065252;28;20304;-44
2022/07/07 04:43:16;;;;;;;5.70;2.37;;;22.20;57.80;23.30;101058.00;;;;5065543;28;20193;-43
2022/07/07 04:45:41;;;;;;;2.80;2.60;;;22.20;57.80;23.30;101050.00;;;;5065071;28;20697;-44
2022/07/07 04:48:07;;;;;;;2.63;2.30;;;22.20;57.40;23.30;101060.00;;;;5065454;28;20165;-44
2022/07/07 04:50:33;;;;;;;2.50;2.30;;;22.20;57.20;23.20;101059.00;;;;5064497;28;20161;-43
2022/07/07 04:52:59;;;;;;;3.50;2.50;;;22.20;57.20;23.00;101059.00;;;;5065244;28;20174;-43
2022/07/07 04:55:25;;;;;;;2.40;2.20;;;22.20;57.10;23.30;101067.00;;;;5065413;28;20240;-43
2022/07/07 04:57:50;;;;;;;3.17;2.33;;;22.30;57.00;23.30;101056.00;;;;5065711;28;20227;-44
2022/07/07 05:00:16;;;;;;;3.40;2.47;;;22.30;57.00;23.30;101056.00;;;;5065744;28;20180;-45
2022/07/07 05:02:42;;;;;;;2.70;2.50;;;22.30;56.70;23.30;101061.00;;;;5065195;28;20579;-44
2022/07/07 05:05:08;;;;;;;3.70;2.60;;;22.30;56.70;23.30;101059.00;;;;5069848;28;20165;-44
2022/07/07 05:07:34;;;;;;;4.00;2.50;;;22.30;56.80;23.20;101061.00;;;;5081443;28;20250;-43
2022/07/07 05:09:59;;;;;;;2.53;2.33;;;22.30;57.00;23.20;101052.00;;;;5065464;28;20194;-44
2022/07/07 05:12:25;;;;;;;4.27;2.37;;;22.30;57.10;23.20;101053.00;;;;5065444;28;20241;-44
2022/07/07 05:14:51;;;;;;;3.20;2.43;;;22.30;57.00;23.20;101057.00;;;;5065177;28;20166;-44
2022/07/07 05:17:17;;;;;;;3.10;2.57;;;22.20;57.10;23.20;101046.00;;;;5064953;28;20189;-44
2022/07/07 05:19:42;;;;;;;2.50;2.30;;;22.30;57.50;23.20;101061.00;;;;5065495;28;20826;-43
2022/07/07 05:22:08;;;;;;;2.63;2.43;;;22.30;57.30;23.20;101054.00;;;;5065017;28;20181;-43
2022/07/07 05:24:34;;;;;;;3.07;2.30;;;22.30;57.30;23.20;101069.00;;;;5065151;28;20189;-44
2022/07/07 05:27:00;;;;;;;2.50;2.30;;;22.30;57.50;23.20;101057.00;;;;5065409;28;20796;-44
2022/07/07 05:29:26;;;;;;;2.47;2.20;;;22.30;57.50;23.20;101066.00;;;;5077563;28;20198;-44
2022/07/07 05:31:53;;;;;;;2.60;2.40;;;22.30;57.60;23.20;101068.00;;;;5083603;28;20174;-44
2022/07/07 05:34:18;;;;;;;2.97;2.43;;;22.30;57.70;23.20;101066.00;;;;5085615;28;20336;-43
2022/07/07 05:36:44;;;;;;;3.53;2.70;;;22.30;57.90;23.20;101069.00;;;;5063853;28;20205;-44
2022/07/07 05:39:13;;;;;;;3.57;2.63;;;22.30;58.10;23.20;101063.00;;;;5065196;28;20261;-43
2022/07/07 05:41:39;;;;;;;2.90;2.60;;;22.30;58.30;23.20;101068.00;;;;5064433;28;20177;-43
2022/07/07 05:44:05;;;;;;;2.30;2.10;;;22.30;58.40;23.20;101071.00;;;;5065132;28;20169;-44
2022/07/07 05:46:31;;;;;;;2.40;2.20;;;22.30;58.30;23.20;101081.00;;;;5065492;28;20221;-44
2022/07/07 05:48:57;;;;;;;2.53;2.20;;;22.30;58.60;23.20;101072.00;;;;5065126;28;20243;-44
2022/07/07 05:51:22;;;;;;;2.87;2.37;;;22.30;58.60;23.20;101087.00;;;;5064553;28;20173;-45
2022/07/07 05:53:48;;;;;;;2.50;2.30;;;22.30;58.60;23.20;101082.00;;;;5065197;28;20165;-44
2022/07/07 05:56:14;;;;;;;2.50;2.30;;;22.30;58.60;23.20;101082.00;;;;5065171;28;20197;-43
2022/07/07 05:58:40;;;;;;;2.47;2.27;;;22.30;58.90;23.20;101100.00;;;;5064652;28;20177;-44
2022/07/07 06:01:05;;;;;;;2.83;2.30;;;22.30;58.90;23.20;101101.00;;;;5064688;28;20224;-44
2022/07/07 06:03:31;;;;;;;3.43;2.40;;;22.30;59.20;23.20;101100.00;;;;5068679;28;20204;-43
2022/07/07 06:05:57;;;;;;;2.33;2.13;;;22.30;59.30;23.20;101115.00;;;;5069910;28;20189;-43
2022/07/07 06:08:23;;;;;;;2.50;2.30;;;22.30;59.60;23.20;101125.00;;;;5071797;28;20173;-44
2022/07/07 06:10:48;;;;;;;2.40;2.20;;;22.30;59.60;23.20;101117.00;;;;5070540;28;20204;-43
2022/07/07 06:13:14;;;;;;;2.30;2.10;;;22.30;59.60;23.20;101123.00;;;;5067855;28;20231;-44
2022/07/07 06:15:40;;;;;;;2.40;2.10;;;22.30;59.70;23.20;101124.00;;;;5068549;28;20219;-44
2022/07/07 06:18:06;;;;;;;2.20;2.00;;;22.30;59.60;23.20;101117.00;;;;5068009;28;20672;-44
2022/07/07 06:20:31;;;;;;;3.07;1.83;;;22.30;60.00;23.20;101118.00;;;;5068267;28;20184;-44
2022/07/07 06:22:57;;;;;;;2.30;2.10;;;22.30;59.90;23.20;101131.00;;;;5067756;28;20185;-44
2022/07/07 06:25:24;;;;;;;2.53;1.80;;;22.30;59.90;23.20;101122.00;;;;5068457;28;20231;-44
2022/07/07 06:27:49;;;;;;;2.20;2.00;;;22.20;59.80;23.20;101125.00;;;;5067862;28;20654;-45
2022/07/07 06:30:15;;;;;;;2.23;1.93;;;22.30;59.90;23.20;101123.00;;;;5068306;28;20197;-44
2022/07/07 06:32:41;;;;;;;2.23;2.03;;;22.20;59.90;23.20;101114.00;;;;5068147;28;20169;-44
2022/07/07 06:35:07;;;;;;;2.13;1.80;;;22.20;60.00;23.20;101129.00;;;;5068179;28;20200;-44
2022/07/07 06:37:33;;;;;;;1.80;1.70;;;22.20;59.90;23.20;101137.00;;;;5067932;28;20217;-43
2022/07/07 06:39:59;;;;;;;1.90;1.80;;;22.30;60.20;23.20;101128.00;;;;5068553;28;20583;-45
2022/07/07 06:42:24;;;;;;;2.03;1.83;;;22.20;60.00;23.20;101126.00;;;;5067698;28;20170;-43
2022/07/07 06:44:50;;;;;;;1.90;1.80;;;22.20;60.00;23.20;101129.00;;;;5068579;28;20205;-44
2022/07/07 06:47:16;;;;;;;2.63;1.90;;;22.20;60.30;23.20;101137.00;;;;4981273;28;20196;-44
2022/07/07 06:49:42;;;;;;;1.97;1.80;;;22.20;60.20;23.20;101138.00;;;;5104448;28;20219;-45
2022/07/07 06:52:08;;;;;;;2.03;1.83;;;22.20;60.20;23.20;101135.00;;;;5094629;27;20207;-44
2022/07/07 06:54:34;;;;;;;2.17;2.00;;;22.20;60.10;23.10;101150.00;;;;5088098;28;20177;-44
2022/07/07 06:57:00;;;;;;;2.33;1.90;;;22.20;60.30;23.10;101151.00;;;;5087774;28;20181;-44
2022/07/07 06:59:25;;;;;;;2.00;1.80;;;22.20;60.70;23.10;101143.00;;;;5087639;28;20215;-44
2022/07/07 07:01:51;;;;;;;2.10;1.90;;;22.20;60.50;23.10;101146.00;;;;5087279;28;20207;-43
2022/07/07 07:04:17;;;;;;;1.80;1.70;;;22.20;60.90;23.10;101147.00;;;;5103427;28;20177;-44
2022/07/07 07:06:42;;;;;;;1.80;1.70;;;22.20;60.90;23.10;101146.00;;;;5086126;28;20211;-43
2022/07/07 07:09:09;;;;;;;1.83;1.73;;;22.20;60.90;23.10;101144.00;;;;5086945;28;20717;-44
2022/07/07 07:11:35;;;;;;;1.67;1.50;;;22.20;60.50;23.10;101140.00;;;;5087068;28;20807;-44
2022/07/07 07:14:02;;;;;;;1.60;1.50;;;22.10;60.70;23.20;101141.00;;;;5086790;28;20212;-44
2022/07/07 07:16:28;;;;;;;1.80;1.70;;;22.20;60.90;23.10;101155.00;;;;5087110;28;20184;-44
2022/07/07 07:18:54;;;;;;;1.60;1.50;;;22.10;60.80;23.10;101153.00;;;;5085946;28;20188;-43
2022/07/07 07:21:20;;;;;;;1.73;1.60;;;22.20;61.20;23.10;101153.00;;;;5086846;28;20784;-43
2022/07/07 07:23:46;;;;;;;1.70;1.60;;;22.10;60.70;23.10;101157.00;;;;5101156;28;20613;-44
2022/07/07 07:26:11;;;;;;;1.60;1.50;;;22.10;61.50;23.10;101159.00;;;;5107182;28;20252;-45
2022/07/07 07:28:37;;;;;;;2.53;1.70;;;22.10;59.80;23.10;101159.00;;;;5107307;27;20565;-43
2022/07/07 07:31:03;;;;;;;5.40;1.90;;;22.10;59.80;23.10;101159.00;;;;5124505;28;20176;-44
2022/07/07 07:33:30;;;;;;;2.30;1.70;;;22.10;59.70;23.10;101160.00;;;;5125345;28;20152;-45
2022/07/07 07:35:56;;;;;;;1.87;1.70;;;22.00;60.00;23.10;101162.00;;;;5121815;28;20684;-44
2022/07/07 07:38:22;;;;;;;1.80;1.50;;;22.10;60.20;23.10;101156.00;;;;5123179;27;20388;-44
2022/07/07 07:40:47;;;;;;;1.97;1.70;;;22.00;60.30;23.10;101169.00;;;;5094477;28;20180;-44
2022/07/07 07:43:13;;;;;;;1.83;1.73;;;22.00;60.30;23.10;101175.00;;;;5087147;28;20169;-44
2022/07/07 07:45:39;;;;;;;2.13;1.60;;;22.10;60.50;23.10;101171.00;;;;4896363;28;20175;-44
2022/07/07 07:48:05;;;;;;;2.33;1.70;;;22.10;60.60;23.00;101187.00;;;;5092113;28;20173;-44
2022/07/07 07:50:31;;;;;;;1.80;1.70;;;22.00;60.70;23.00;101177.00;;;;5094122;28;20615;-44
2022/07/07 07:52:57;;;;;;;2.17;1.80;;;22.10;60.60;23.10;101189.00;;;;5087090;28;20173;-45
2022/07/07 07:55:23;;;;;;;3.67;1.90;;;22.00;60.80;23.10;101178.00;;;;5086653;28;20670;-43
2022/07/07 07:57:50;;;;;;;8.20;2.03;;;22.00;61.10;23.00;101191.00;;;;5086857;28;20707;-44
2022/07/07 08:00:17;;;;;;;2.27;1.70;;;22.10;60.30;23.00;101122.00;;;;5086744;28;20165;-44
2022/07/07 08:02:43;;;;;;;2.70;1.70;;;22.10;60.40;23.10;101200.00;;;;5086729;28;20214;-45
2022/07/07 08:05:13;;;;;;;3.63;1.70;;;22.10;60.20;23.10;101187.00;;;;5086838;28;20279;-44
2022/07/07 08:07:41;;;;;;;3.33;2.00;;;22.20;60.00;23.10;101131.00;;;;5104310;28;20193;-44
2022/07/07 08:10:09;;;;;;;4.77;2.03;;;22.20;60.10;23.10;101194.00;;;;5106468;28;20821;-43
2022/07/07 08:12:35;;;;;;;3.53;1.90;;;22.20;60.00;23.10;101198.00;;;;5106726;28;20164;-45
2022/07/07 08:15:01;;;;;;;2.93;1.73;;;22.10;60.00;23.10;101200.00;;;;5106596;28;20525;-44
2022/07/07 08:17:27;;;;;;;4.13;1.73;;;22.20;60.40;23.10;101200.00;;;;5098073;28;20189;-43
2022/07/07 08:19:52;;;;;;;4.97;1.67;;;22.10;60.70;23.10;101132.00;;;;5086563;28;20212;-43
2022/07/07 08:22:18;;;;;;;3.63;1.73;;;22.20;60.10;23.10;101193.00;;;;5086807;28;20205;-44
2022/07/07 08:24:44;;;;;;;2.73;1.70;;;22.10;60.10;23.10;101197.00;;;;5086579;28;20205;-45
2022/07/07 08:27:10;;;;;;;2.20;1.63;;;22.10;60.40;23.10;101200.00;;;;5086632;28;20238;-43
2022/07/07 08:29:38;;;;;;;4.50;1.83;;;22.10;60.60;23.10;101205.00;;;;5085796;28;20442;-43
2022/07/07 08:32:06;;;;;;;3.17;1.70;;;22.10;60.40;23.10;101215.00;;;;5086425;28;20587;-44
2022/07/07 08:34:33;;;;;;;3.17;1.70;;;22.10;60.50;23.10;101213.00;;;;5085696;28;20248;-44
2022/07/07 08:36:58;;;;;;;2.43;1.40;;;22.10;60.20;23.10;101209.00;;;;5085580;28;20208;-44
2022/07/07 08:39:24;;;;;;;2.07;1.53;;;22.10;60.30;23.10;101218.00;;;;5086081;28;20559;-45
2022/07/07 08:41:50;;;;;;;2.70;1.57;;;22.10;60.70;23.10;101220.00;;;;5086248;28;20177;-44
2022/07/07 08:44:17;;;;;;;2.50;1.63;;;22.00;60.70;23.10;101220.00;;;;5068342;28;20185;-44
2022/07/07 08:46:43;;;;;;;1.87;1.67;;;22.10;60.70;23.10;101227.00;;;;5084876;28;20201;-43
2022/07/07 08:49:11;;;;;;;1.53;1.43;;;22.00;60.70;23.10;101231.00;;;;5086017;28;20215;-45
2022/07/07 08:51:41;;;;;;;2.97;1.93;;;22.10;60.50;23.10;101243.00;;;;5085666;28;20531;-44
2022/07/07 08:54:09;;;;;;;2.77;1.70;;;22.10;60.30;23.10;101249.00;;;;5086441;28;20265;-43
2022/07/07 08:56:38;;;;;;;2.27;1.50;;;22.10;60.40;23.00;101269.00;;;;5084943;28;20232;-43
2022/07/07 08:59:06;;;;;;;3.20;1.90;;;22.00;60.50;23.00;101262.00;;;;5085945;28;20180;-44
2022/07/07 09:01:32;;;;;;;1.73;1.50;;;22.00;60.50;23.00;101256.00;;;;5086136;28;20169;-44
2022/07/07 09:03:59;;;;;;;2.60;1.67;;;22.00;60.40;23.00;101269.00;;;;5088220;28;20604;-44
2022/07/07 09:06:24;;;;;;;2.13;1.80;;;21.90;60.30;23.00;101256.00;;;;5090786;28;20601;-42
2022/07/07 09:08:50;;;;;;;1.60;1.50;;;22.00;60.30;23.00;101274.00;;;;5086435;28;20196;-45
2022/07/07 09:11:26;;;;;;;1.70;1.60;;;22.00;60.40;23.00;101280.00;;;;5085536;28;20384;-44
2022/07/07 09:14:16;;;;;;;2.03;1.53;;;22.00;60.40;23.00;101253.00;;;;5085057;28;20200;-44
2022/07/07 09:16:42;;;;;;;3.13;1.53;;;22.00;60.40;23.00;101270.00;;;;5084195;28;20739;-44
2022/07/07 09:19:22;;;;;;;2.70;1.53;;;22.00;60.40;23.00;101270.00;;;;5085687;28;20179;-43
2022/07/07 09:21:49;;;;;;;1.60;1.50;;;22.00;60.60;23.00;101294.00;;;;5086042;28;20588;-44
2022/07/07 09:24:15;;;;;;;1.97;1.50;;;22.00;60.00;23.00;101250.00;;;;5086993;28;20183;-44
2022/07/07 09:26:41;;;;;;;3.17;1.67;;;22.00;59.90;23.00;101275.00;;;;5086243;28;20275;-43
2022/07/07 09:29:10;;;;;;;2.40;1.60;;;21.90;60.80;23.00;101278.00;;;;5086467;28;20277;-45
2022/07/07 09:31:59;;;;;;;2.23;1.63;;;22.00;60.90;23.00;101283.00;;;;5096883;28;20169;-45
2022/07/07 09:34:28;;;;;;;2.17;1.80;;;22.00;59.90;23.00;101277.00;;;;5101246;28;20153;-45
2022/07/07 09:39:50;;;;;;;2.43;1.73;;;22.00;59.70;23.00;101309.00;;;;5100485;28;20172;-44
2022/07/07 09:42:29;;;;;;;5.10;1.73;;;22.10;59.60;23.00;101302.00;;;;5089884;28;20183;-43
2022/07/07 09:45:00;;;;;;;4.07;1.60;;;22.10;59.60;23.00;101311.00;;;;5090075;28;20623;-42
2022/07/07 09:47:25;;;;;;;4.10;1.63;;;22.10;59.50;23.10;101307.00;;;;5089370;28;20242;-43
2022/07/07 09:50:12;;;;;;;7.97;1.60;;;22.10;59.40;23.10;101311.00;;;;5089292;28;20181;-44
2022/07/07 09:52:41;;;;;;;6.53;1.60;;;22.10;59.80;23.10;101306.00;;;;5035157;28;20161;-45
2022/07/07 09:55:09;;;;;;;7.00;1.80;;;22.10;59.60;23.10;101312.00;;;;5089223;28;20645;-44
2022/07/07 09:57:36;;;;;;;4.83;2.00;;;22.10;59.40;23.10;101324.00;;;;5089292;28;20195;-44
2022/07/07 10:00:03;;;;;;;5.37;1.77;;;22.10;59.20;23.10;101319.00;;;;5107432;28;20168;-44
2022/07/07 10:02:29;;;;;;;7.87;1.90;;;22.10;59.60;23.10;101331.00;;;;5090057;28;20653;-44
2022/07/07 10:05:00;;;;;;;3.80;1.87;;;22.10;59.60;23.10;101338.00;;;;5088639;28;20177;-43
2022/07/07 10:07:28;;;;;;;5.17;1.53;;;22.10;59.60;23.10;101349.00;;;;5083236;28;20205;-43
2022/07/07 10:10:00;;;;;;;4.73;1.60;;;22.10;59.70;23.10;101343.00;;;;5091820;28;20233;-44
2022/07/07 10:12:28;;;;;;;3.10;1.30;;;22.20;60.00;23.10;101345.00;;;;5091427;28;20260;-44
2022/07/07 10:15:04;;;;;;;3.07;1.67;;;22.20;59.70;23.10;101351.00;;;;5091573;28;20724;-43
2022/07/07 10:17:30;;;;;;;3.23;1.50;;;22.20;59.60;23.20;101351.00;;;;5105604;28;20191;-45
2022/07/07 10:19:56;;;;;;;4.93;1.70;;;22.20;59.50;23.20;101359.00;;;;5091937;28;20187;-44
2022/07/07 10:22:27;;;;;;;4.17;1.40;;;22.20;59.30;23.20;101365.00;;;;5097605;28;20279;-45
2022/07/07 10:24:54;;;;;;;5.07;1.50;;;22.20;59.20;23.20;101364.00;;;;5126433;27;20198;-43
2022/07/07 10:27:22;;;;;;;3.37;1.63;;;22.20;59.60;23.20;101370.00;;;;5127455;27;20210;-44
2022/07/07 10:29:53;;;;;;;3.00;1.27;;;22.20;59.50;23.20;101372.00;;;;5112036;28;20192;-44
2022/07/07 10:32:31;;;;;;;2.00;1.40;;;22.20;59.40;23.20;101367.00;;;;5111698;28;20159;-44
2022/07/07 10:35:04;;;;;;;2.13;1.70;;;22.20;58.90;23.20;101386.00;;;;5111550;28;20156;-45
2022/07/07 10:37:40;;;;;;;3.23;1.40;;;22.10;58.80;23.20;101381.00;;;;5111314;28;20180;-43
2022/07/07 10:40:06;;;;;;;1.77;1.40;;;22.10;59.10;23.10;101385.00;;;;5126150;27;20241;-44
2022/07/07 10:42:44;;;;;;;2.97;1.60;;;22.10;58.90;23.10;101386.00;;;;5109943;28;20206;-44
2022/07/07 10:45:10;;;;;;;1.33;1.23;;;22.10;59.00;23.10;101379.00;;;;5125116;27;20300;-43
2022/07/07 10:47:36;;;;;;;2.07;1.40;;;22.00;59.00;23.10;101381.00;;;;5099387;28;20249;-45